Patoka, Indiana
Current Conditions -  °F | °C
As of 6:15 PM on Friday 24 Oct 2014 (Local Time) from KAJG Reporting Station
Clear Clear  
Wind Chill: 18°   Ceiling: Unl
Heat Index: 18°   Visibility: 7mi
Dew Point: 11°   Wind: 0mph
Humidity: 64%   Direction: NA
Pressure: 30.03"   Gusts: NA
Location:  38.41°N, 87.59°W
Report Text: KAJG 242315Z AUTO 00000KT 7SM CLR 18/11 A3003 RMK AO2
Loading
Personal Weather Stations






























Interactive Weather Map
Tropical Storm Tracking
New forecast layout! Learn more

10-Day Weather Forecast

Advertisements
Track Severe Weather on mobile